Time;durP1;ratioP1;P1;durP2;ratioP2;P2;SDS_P1;SDS_P2;PMS_P1;PMS_P2;Temp;Humidity;BMP_temperature;BMP_pressure;BME280_temperature;BME280_humidity;BME280_pressure;Samples;Min_cycle;Max_cycle;Signal;HPM_P1;HPM_P2
2023/03/12 00:02:04;;;;;;;61.80;17.60;;;;;;;9.84;100.00;98781.67;106363;1288;58348;-82
2023/03/12 00:04:31;;;;;;;58.80;17.30;;;;;;;9.84;100.00;98774.77;106513;1287;58657;-82
2023/03/12 00:06:56;;;;;;;63.60;17.50;;;;;;;9.85;100.00;98768.36;106565;1287;58222;-82
2023/03/12 00:09:22;;;;;;;62.30;16.90;;;;;;;9.86;100.00;98768.08;106545;1287;58283;-82
2023/03/12 00:11:48;;;;;;;66.40;18.00;;;;;;;9.86;100.00;98766.41;106638;1287;58671;-83
2023/03/12 00:14:14;;;;;;;67.70;17.80;;;;;;;9.89;100.00;98758.33;106520;1287;73648;-82
2023/03/12 00:16:39;;;;;;;70.00;18.60;;;;;;;9.89;100.00;98751.54;106519;1287;58347;-83
2023/03/12 00:19:05;;;;;;;53.50;16.30;;;;;;;9.92;100.00;98742.70;106567;1287;58252;-82
2023/03/12 00:21:30;;;;;;;53.10;16.20;;;;;;;9.97;100.00;98734.10;106535;1287;58677;-82
2023/03/12 00:23:56;;;;;;;57.40;15.90;;;;;;;9.98;100.00;98731.23;106265;1288;58517;-82
2023/03/12 00:26:21;;;;;;;61.50;16.50;;;;;;;9.99;100.00;98722.86;106533;1287;61902;-82
2023/03/12 00:28:48;;;;;;;54.20;16.20;;;;;;;10.01;100.00;98724.27;106580;1287;58261;-83
2023/03/12 00:31:23;;;;;;;51.70;15.60;;;;;;;10.03;100.00;98718.42;106427;1287;58589;-82
2023/03/12 00:33:49;;;;;;;47.40;14.90;;;;;;;10.04;100.00;98715.42;106513;1287;74507;-83
2023/03/12 00:36:18;;;;;;;47.20;13.90;;;;;;;10.05;100.00;98711.45;106543;1287;58636;-83
2023/03/12 00:38:43;;;;;;;46.10;14.80;;;;;;;10.02;100.00;98712.31;106554;1287;62060;-82
2023/03/12 00:41:09;;;;;;;51.80;15.00;;;;;;;10.01;100.00;98708.80;106553;1287;58439;-83
2023/03/12 00:43:35;;;;;;;50.90;16.00;;;;;;;10.02;100.00;98706.11;106546;1287;58319;-82
2023/03/12 00:46:01;;;;;;;49.00;14.50;;;;;;;10.02;100.00;98696.42;106589;1287;58290;-83
2023/03/12 00:48:26;;;;;;;37.40;14.30;;;;;;;10.04;100.00;98694.50;106550;1287;58268;-82
2023/03/12 00:50:54;;;;;;;42.50;13.70;;;;;;;10.04;100.00;98692.57;106593;1287;58556;-83
2023/03/12 00:53:20;;;;;;;36.80;12.20;;;;;;;10.03;100.00;98687.75;106232;1288;74573;-82
2023/03/12 00:55:45;;;;;;;37.50;12.60;;;;;;;10.04;100.00;98680.30;106565;1287;58234;-84
2023/03/12 00:58:11;;;;;;;41.20;12.30;;;;;;;10.04;100.00;98681.43;106268;1288;58305;-82
2023/03/12 01:00:37;;;;;;;39.70;13.00;;;;;;;10.07;100.00;98683.09;106261;1288;58408;-82
2023/03/12 01:03:02;;;;;;;45.20;13.70;;;;;;;10.08;100.00;98676.39;106629;1287;58950;-83
2023/03/12 01:05:28;;;;;;;48.10;14.30;;;;;;;10.11;100.00;98672.81;106332;1288;72737;-83
2023/03/12 01:07:53;;;;;;;42.20;13.80;;;;;;;10.13;100.00;98673.43;106324;1288;58271;-82
2023/03/12 01:10:20;;;;;;;47.20;14.40;;;;;;;10.13;100.00;98668.40;106159;1288;58314;-82
2023/03/12 01:12:46;;;;;;;44.90;13.60;;;;;;;10.15;100.00;98672.79;106542;1287;58191;-82
2023/03/12 01:15:16;;;;;;;46.20;14.00;;;;;;;10.18;100.00;98673.15;106385;1288;58243;-82
2023/03/12 01:17:42;;;;;;;45.10;14.00;;;;;;;10.17;100.00;98669.00;106566;1287;73669;-82
2023/03/12 01:20:08;;;;;;;48.90;15.20;;;;;;;10.20;100.00;98669.27;106547;1287;58267;-82
2023/03/12 01:22:34;;;;;;;40.60;15.00;;;;;;;10.22;100.00;98661.15;106560;1287;58234;-82
2023/03/12 01:24:59;;;;;;;39.50;14.80;;;;;;;10.21;100.00;98663.42;106336;1288;59249;-82
2023/03/12 01:27:25;;;;;;;48.30;15.90;;;;;;;10.22;100.00;98657.39;106556;1287;58426;-82
2023/03/12 01:29:51;;;;;;;51.60;15.40;;;;;;;10.23;100.00;98651.44;106522;1287;58260;-82
2023/03/12 01:32:17;;;;;;;47.50;16.00;;;;;;;10.25;100.00;98651.98;106550;1287;58334;-82
2023/03/12 01:34:43;;;;;;;47.80;14.90;;;;;;;10.26;100.00;98647.67;106489;1287;58633;-82
2023/03/12 01:37:08;;;;;;;46.50;16.00;;;;;;;10.24;100.00;98641.02;106196;1287;58648;-82
2023/03/12 01:39:34;;;;;;;44.70;15.90;;;;;;;10.25;100.00;98644.98;106543;1287;58213;-82
2023/03/12 01:42:00;;;;;;;48.50;17.30;;;;;;;10.27;100.00;98646.52;106550;1287;58579;-82
2023/03/12 01:44:26;;;;;;;61.50;18.00;;;;;;;10.28;100.00;98649.48;106583;1287;58487;-82
2023/03/12 01:46:52;;;;;;;51.60;17.00;;;;;;;10.27;100.00;98655.45;106379;1288;58316;-81
2023/03/12 01:49:23;;;;;;;49.30;15.90;;;;;;;10.29;100.00;98652.20;106619;1287;58270;-81
2023/03/12 01:51:56;;;;;;;43.90;13.80;;;;;;;10.28;100.00;98649.86;106521;1287;73277;-81
2023/03/12 01:54:45;;;;;;;44.90;13.30;;;;;;;10.26;100.00;98641.46;106506;1287;60854;-81
2023/03/12 01:57:15;;;;;;;44.70;13.70;;;;;;;10.24;100.00;98647.37;106230;1288;60042;-82
2023/03/12 01:59:53;;;;;;;44.00;13.30;;;;;;;10.25;100.00;98646.16;106532;1287;74498;-82
2023/03/12 02:02:25;;;;;;;42.40;13.60;;;;;;;10.23;100.00;98640.17;106557;1287;74344;-82
2023/03/12 02:04:58;;;;;;;40.00;14.40;;;;;;;10.23;100.00;98640.34;106552;1287;73945;-82
2023/03/12 02:07:24;;;;;;;;;;;;;;;10.24;100.00;98636.38;106293;1287;61863;-81
2023/03/12 02:09:50;;;;;;;39.40;14.00;;;;;;;10.24;100.00;98634.61;106556;1287;58286;-82
2023/03/12 02:12:16;;;;;;;47.70;14.90;;;;;;;10.22;100.00;98632.49;106557;1287;58266;-81
2023/03/12 02:14:42;;;;;;;40.80;14.50;;;;;;;10.18;100.00;98630.44;106560;1287;58326;-82
2023/03/12 02:17:09;;;;;;;42.30;15.90;;;;;;;10.16;100.00;98630.71;106678;1286;58276;-83
2023/03/12 02:19:53;;;;;;;49.20;17.00;;;;;;;10.15;100.00;98631.44;106675;1287;58282;-82
2023/03/12 02:22:19;;;;;;;48.50;15.80;;;;;;;10.14;100.00;98623.83;106319;1286;60212;-82
2023/03/12 02:25:02;;;;;;;52.80;15.70;;;;;;;10.14;100.00;98624.45;106705;1285;74714;-82
2023/03/12 02:27:32;;;;;;;41.70;15.00;;;;;;;10.14;100.00;98617.61;106358;1286;73178;-82
2023/03/12 02:29:59;;;;;;;48.70;15.70;;;;;;;10.13;100.00;98610.39;106679;1286;73308;-82
2023/03/12 02:32:34;;;;;;;46.60;15.70;;;;;;;10.10;100.00;98609.86;106652;1285;61119;-82
2023/03/12 02:35:02;;;;;;;51.80;14.80;;;;;;;10.13;100.00;98605.65;106652;1285;61104;-82
2023/03/12 02:37:27;;;;;;;56.70;16.10;;;;;;;10.10;100.00;98605.35;106660;1286;74495;-82
2023/03/12 02:40:01;;;;;;;48.30;15.50;;;;;;;10.09;100.00;98610.80;106674;1286;58326;-83
2023/03/12 02:42:26;;;;;;;62.90;16.00;;;;;;;10.09;100.00;98607.32;106673;1286;73411;-82
2023/03/12 02:44:52;;;;;;;48.30;15.40;;;;;;;10.09;100.00;98605.16;106690;1286;58176;-83
2023/03/12 02:47:18;;;;;;;46.00;14.70;;;;;;;10.08;100.00;98599.89;106696;1286;58577;-82
2023/03/12 02:49:45;;;;;;;38.00;13.80;;;;;;;10.06;100.00;98602.27;106443;1286;58629;-83
2023/03/12 02:52:11;;;;;;;48.00;15.10;;;;;;;10.07;100.00;98596.98;106670;1286;58276;-82
2023/03/12 02:54:36;;;;;;;49.90;15.00;;;;;;;10.05;100.00;98599.28;106436;1286;58572;-82
2023/03/12 02:57:02;;;;;;;42.90;14.70;;;;;;;10.06;100.00;98598.94;106727;1286;58141;-82
2023/03/12 02:59:27;;;;;;;42.60;14.20;;;;;;;10.07;100.00;98598.85;106665;1285;73604;-83
2023/03/12 03:01:58;;;;;;;47.50;13.40;;;;;;;10.08;100.00;98599.36;106637;1286;58547;-82
2023/03/12 03:04:24;;;;;;;43.10;12.30;;;;;;;10.02;100.00;98598.08;106431;1286;72498;-82
2023/03/12 03:06:50;;;;;;;35.00;12.40;;;;;;;10.00;100.00;98596.44;106681;1285;58200;-82
2023/03/12 03:09:15;;;;;;;38.40;12.00;;;;;;;10.00;100.00;98597.88;106468;1286;58278;-82
2023/03/12 03:11:41;;;;;;;53.60;13.40;;;;;;;10.02;100.00;98598.81;106724;1285;58555;-82
2023/03/12 03:14:07;;;;;;;49.60;13.30;;;;;;;10.02;100.00;98594.98;106692;1285;58224;-81
2023/03/12 03:16:33;;;;;;;37.60;12.60;;;;;;;10.03;100.00;98588.77;106684;1286;58803;-82
2023/03/12 03:18:59;;;;;;;51.00;12.70;;;;;;;10.00;100.00;98587.37;106734;1285;58329;-83
2023/03/12 03:21:24;;;;;;;53.30;12.50;;;;;;;9.99;100.00;98586.00;106702;1285;74463;-82
2023/03/12 03:23:51;;;;;;;43.00;12.40;;;;;;;10.02;100.00;98585.52;106712;1285;58229;-83
2023/03/12 03:26:19;;;;;;;29.70;11.30;;;;;;;9.97;100.00;98586.59;106677;1286;58371;-82
2023/03/12 03:28:44;;;;;;;41.40;12.30;;;;;;;9.93;100.00;98587.92;106683;1286;60969;-81
2023/03/12 03:31:10;;;;;;;36.30;10.80;;;;;;;9.93;100.00;98583.61;106336;1286;58471;-82
2023/03/12 03:33:38;;;;;;;35.50;10.80;;;;;;;9.92;100.00;98585.30;106703;1286;58210;-81
2023/03/12 03:36:23;;;;;;;35.70;10.10;;;;;;;9.87;100.00;98589.03;106473;1286;58397;-81
2023/03/12 03:38:49;;;;;;;33.50;10.00;;;;;;;9.89;100.00;98586.46;106688;1286;73515;-81
2023/03/12 03:41:17;;;;;;;35.10;10.10;;;;;;;9.91;100.00;98580.55;106374;1286;58277;-82
2023/03/12 03:43:43;;;;;;;31.60;10.20;;;;;;;9.90;100.00;98582.20;106664;1286;60217;-81
2023/03/12 03:46:11;;;;;;;37.70;10.10;;;;;;;9.86;100.00;98579.31;106712;1285;58306;-82
2023/03/12 03:48:37;;;;;;;31.20;9.70;;;;;;;9.87;100.00;98579.14;106684;1285;74918;-81
2023/03/12 03:51:04;;;;;;;25.40;8.80;;;;;;;9.85;100.00;98579.78;106677;1286;58280;-82
2023/03/12 03:53:30;;;;;;;30.60;8.50;;;;;;;9.83;100.00;98582.23;106292;1286;60917;-82
2023/03/12 03:55:55;;;;;;;29.80;9.30;;;;;;;9.82;100.00;98577.10;106687;1285;58209;-81
2023/03/12 03:58:21;;;;;;;24.40;8.30;;;;;;;9.80;100.00;98575.63;106705;1285;58208;-81
2023/03/12 04:00:47;;;;;;;30.50;8.00;;;;;;;9.79;100.00;98577.86;106458;1286;58693;-82
2023/03/12 04:03:12;;;;;;;35.40;9.00;;;;;;;9.79;100.00;98577.42;106697;1285;58491;-82
2023/03/12 04:05:39;;;;;;;23.40;7.70;;;;;;;9.80;100.00;98580.27;106753;1285;58190;-82
2023/03/12 04:08:05;;;;;;;21.60;7.40;;;;;;;9.83;100.00;98579.55;106679;1286;74621;-82
2023/03/12 04:10:31;;;;;;;18.40;6.50;;;;;;;9.82;100.00;98584.31;106744;1286;58253;-82
2023/03/12 04:12:57;;;;;;;30.20;8.90;;;;;;;9.81;100.00;98582.83;106704;1285;58200;-81
2023/03/12 04:15:22;;;;;;;25.40;7.20;;;;;;;9.81;100.00;98580.03;106292;1286;58528;-82
2023/03/12 04:17:48;;;;;;;22.90;7.70;;;;;;;9.82;100.00;98581.28;106728;1285;58281;-83
2023/03/12 04:20:13;;;;;;;29.40;8.30;;;;;;;9.81;100.00;98578.05;106747;1286;58283;-81
2023/03/12 04:22:39;;;;;;;29.20;9.40;;;;;;;9.83;100.00;98581.55;106722;1285;70373;-82
2023/03/12 04:25:06;;;;;;;25.80;8.30;;;;;;;9.84;100.00;98579.80;106704;1286;58194;-82
2023/03/12 04:27:32;;;;;;;30.00;8.90;;;;;;;9.83;100.00;98574.80;106692;1286;58341;-81
2023/03/12 04:29:57;;;;;;;28.90;9.60;;;;;;;9.84;100.00;98581.61;106743;1286;58274;-82
2023/03/12 04:32:23;;;;;;;27.80;9.60;;;;;;;9.87;100.00;98581.35;106736;1286;58211;-82
2023/03/12 04:34:48;;;;;;;37.20;11.30;;;;;;;9.86;100.00;98582.33;106392;1286;58645;-83
2023/03/12 04:37:14;;;;;;;31.60;11.90;;;;;;;9.88;100.00;98582.45;106732;1286;58908;-82
2023/03/12 04:39:40;;;;;;;26.30;10.20;;;;;;;9.90;100.00;98583.14;106482;1286;74582;-82
2023/03/12 04:42:07;;;;;;;38.50;13.00;;;;;;;9.93;100.00;98588.83;106471;1286;58417;-82
2023/03/12 04:44:33;;;;;;;34.80;13.40;;;;;;;9.96;100.00;98593.39;106713;1285;58355;-81
2023/03/12 04:46:58;;;;;;;39.10;13.30;;;;;;;9.98;100.00;98596.84;106725;1286;58199;-83
2023/03/12 04:49:24;;;;;;;46.90;14.10;;;;;;;10.01;100.00;98597.64;106733;1286;58687;-82
2023/03/12 04:51:49;;;;;;;43.50;14.70;;;;;;;10.06;100.00;98604.32;106695;1286;58266;-82
2023/03/12 04:54:15;;;;;;;38.30;14.30;;;;;;;10.07;100.00;98606.93;106607;1286;58378;-82
2023/03/12 04:56:40;;;;;;;38.10;13.90;;;;;;;10.10;100.00;98610.08;106682;1286;60952;-81
2023/03/12 04:59:06;;;;;;;39.70;14.10;;;;;;;10.10;100.00;98614.64;106720;1285;58252;-82
2023/03/12 05:01:35;;;;;;;45.20;13.80;;;;;;;10.12;100.00;98621.40;106703;1285;58612;-81
2023/03/12 05:04:01;;;;;;;44.10;14.00;;;;;;;10.12;100.00;98624.84;106457;1286;74251;-82
2023/03/12 05:06:27;;;;;;;37.20;13.00;;;;;;;10.13;100.00;98628.63;106441;1286;58197;-82
2023/03/12 05:08:53;;;;;;;37.30;12.20;;;;;;;10.15;100.00;98627.13;106486;1286;58301;-82
2023/03/12 05:11:19;;;;;;;33.20;10.80;;;;;;;10.13;100.00;98636.23;106740;1285;59786;-81
2023/03/12 05:13:45;;;;;;;27.90;9.10;;;;;;;10.14;100.00;98645.77;106714;1286;58241;-81
2023/03/12 05:16:11;;;;;;;22.10;7.90;;;;;;;10.16;100.00;98657.97;106751;1286;58528;-81
2023/03/12 05:18:37;;;;;;;16.50;7.20;;;;;;;10.16;100.00;98665.64;106709;1286;58193;-81
2023/03/12 05:21:08;;;;;;;12.80;5.50;;;;;;;10.15;100.00;98678.48;106308;1286;58800;-82
2023/03/12 05:23:35;;;;;;;15.90;6.70;;;;;;;10.11;100.00;98679.49;106269;1286;72282;-81
2023/03/12 05:26:01;;;;;;;19.10;7.20;;;;;;;10.08;100.00;98699.04;106471;1286;71786;-82
2023/03/12 05:28:27;;;;;;;11.30;5.00;;;;;;;10.01;100.00;98729.17;106732;1286;58329;-82
2023/03/12 05:30:57;;;;;;;11.80;4.70;;;;;;;9.85;100.00;98753.67;106451;1286;58342;-82
2023/03/12 05:33:24;;;;;;;11.10;4.80;;;;;;;9.70;100.00;98765.15;106687;1286;58195;-81
2023/03/12 05:35:50;;;;;;;9.90;4.50;;;;;;;9.58;100.00;98779.59;106460;1285;74804;-82
2023/03/12 05:38:15;;;;;;;8.80;4.10;;;;;;;9.53;100.00;98783.88;106727;1286;58657;-81
2023/03/12 05:40:41;;;;;;;9.40;4.40;;;;;;;9.50;100.00;98781.23;106742;1286;58228;-81
2023/03/12 05:43:07;;;;;;;12.90;4.60;;;;;;;9.58;100.00;98773.71;106729;1285;58324;-81
2023/03/12 05:45:32;;;;;;;8.40;4.10;;;;;;;9.72;100.00;98770.45;106759;1285;58241;-82
2023/03/12 05:47:58;;;;;;;9.50;4.60;;;;;;;9.78;100.00;98756.45;106347;1286;74289;-82
2023/03/12 05:50:24;;;;;;;9.70;4.90;;;;;;;9.78;100.00;98772.52;106517;1286;58719;-81
2023/03/12 05:52:49;;;;;;;8.50;4.80;;;;;;;9.71;100.00;98808.29;106701;1286;58248;-83
2023/03/12 05:55:15;;;;;;;12.40;5.30;;;;;;;9.63;100.00;98822.99;106724;1286;58267;-81
2023/03/12 05:57:40;;;;;;;11.00;5.30;;;;;;;9.60;100.00;98847.00;106767;1286;58205;-81
2023/03/12 06:00:07;;;;;;;10.80;5.00;;;;;;;9.59;100.00;98861.42;106800;1286;58309;-81
2023/03/12 06:02:32;;;;;;;11.70;5.00;;;;;;;9.61;100.00;98869.56;106700;1286;61056;-82
2023/03/12 06:04:58;;;;;;;12.00;5.20;;;;;;;9.66;100.00;98873.67;106807;1286;58244;-82
2023/03/12 06:07:23;;;;;;;10.80;5.00;;;;;;;9.71;100.00;98877.63;106724;1286;58903;-82
2023/03/12 06:09:49;;;;;;;9.40;4.80;;;;;;;9.80;100.00;98884.52;106718;1286;58547;-82
2023/03/12 06:12:14;;;;;;;12.10;5.60;;;;;;;9.85;100.00;98891.09;106738;1287;58498;-81
2023/03/12 06:14:40;;;;;;;11.70;5.00;;;;;;;9.85;100.00;98903.38;106344;1285;60955;-82
2023/03/12 06:17:05;;;;;;;12.10;5.60;;;;;;;9.82;100.00;98908.84;106737;1286;58313;-81
2023/03/12 06:19:31;;;;;;;13.60;5.80;;;;;;;9.73;100.00;98913.42;106338;1286;58328;-82
2023/03/12 06:21:57;;;;;;;15.20;5.80;;;;;;;9.67;100.00;98927.12;106786;1286;58337;-82
2023/03/12 06:24:22;;;;;;;17.60;6.50;;;;;;;9.61;100.00;98932.27;106773;1286;58181;-82
2023/03/12 06:26:48;;;;;;;19.50;7.10;;;;;;;9.55;100.00;98943.13;106491;1286;74666;-82
2023/03/12 06:29:13;;;;;;;15.80;7.20;;;;;;;9.50;100.00;98945.41;106755;1286;58493;-82
2023/03/12 06:31:40;;;;;;;18.00;7.80;;;;;;;9.51;100.00;98953.63;106747;1286;58282;-81
2023/03/12 06:34:06;;;;;;;12.40;6.30;;;;;;;9.52;100.00;98958.83;106534;1288;58216;-82
2023/03/12 06:36:32;;;;;;;12.30;6.40;;;;;;;9.46;100.00;98973.18;106759;1286;58302;-81
2023/03/12 06:38:57;;;;;;;15.20;6.60;;;;;;;9.35;100.00;98984.84;106765;1286;58379;-81
2023/03/12 06:41:23;;;;;;;12.70;6.20;;;;;;;9.23;100.00;98983.78;106792;1286;58204;-82
2023/03/12 06:43:48;;;;;;;13.10;5.50;;;;;;;9.13;100.00;98993.39;106788;1286;61955;-83
2023/03/12 06:46:17;;;;;;;13.80;6.30;;;;;;;9.04;100.00;99002.26;106747;1286;58223;-81
2023/03/12 06:48:44;;;;;;;13.00;6.20;;;;;;;8.91;100.00;99006.98;106745;1286;73501;-81
2023/03/12 06:51:11;;;;;;;10.60;5.10;;;;;;;8.81;100.00;99005.34;106497;1286;74485;-83
2023/03/12 06:53:37;;;;;;;11.00;5.80;;;;;;;8.74;100.00;99002.56;106435;1286;72713;-81
2023/03/12 06:56:04;;;;;;;12.50;6.20;;;;;;;8.80;100.00;98997.92;106715;1286;58229;-82
2023/03/12 06:58:30;;;;;;;11.90;5.40;;;;;;;9.00;100.00;99001.65;106789;1286;58245;-82
2023/03/12 07:00:56;;;;;;;11.40;5.80;;;;;;;9.26;100.00;99001.04;106799;1286;58659;-82
2023/03/12 07:03:21;;;;;;;11.20;5.60;;;;;;;9.44;100.00;99011.70;106352;1290;58288;-82
2023/03/12 07:05:49;;;;;;;11.50;6.00;;;;;;;9.42;100.00;99021.80;106721;1286;58287;-83
2023/03/12 07:08:15;;;;;;;15.90;6.90;;;;;;;9.42;100.00;99030.07;106435;1286;348325;-82
2023/03/12 07:10:41;;;;;;;13.50;6.70;;;;;;;9.38;100.00;99044.15;106792;1286;58258;-83
2023/03/12 07:13:07;;;;;;;14.20;6.30;;;;;;;9.34;100.00;99049.05;106696;1286;58398;-82
2023/03/12 07:15:33;;;;;;;17.50;7.40;;;;;;;9.38;100.00;99057.77;106806;1286;58331;-82
2023/03/12 07:17:59;;;;;;;21.50;9.30;;;;;;;9.34;100.00;99065.19;106688;1286;61047;-83
2023/03/12 07:20:25;;;;;;;28.50;12.40;;;;;;;9.30;100.00;99081.09;106489;1286;60815;-82
2023/03/12 07:22:51;;;;;;;30.70;13.20;;;;;;;9.20;100.00;99090.30;106742;1286;58234;-82
2023/03/12 07:25:16;;;;;;;41.20;17.00;;;;;;;9.13;100.00;99097.86;106764;1287;58276;-82
2023/03/12 07:27:42;;;;;;;41.70;17.30;;;;;;;9.01;100.00;99108.00;106406;1286;58757;-82
2023/03/12 07:30:08;;;;;;;48.90;21.00;;;;;;;8.97;100.00;99113.25;106787;1286;58171;-82
2023/03/12 07:32:35;;;;;;;45.50;19.80;;;;;;;8.91;100.00;99121.11;106435;1286;73453;-82
2023/03/12 07:35:01;;;;;;;45.40;19.70;;;;;;;8.90;100.00;99136.32;106778;1286;74465;-82
2023/03/12 07:37:27;;;;;;;41.70;18.00;;;;;;;8.93;100.00;99145.70;106736;1285;58487;-82
2023/03/12 07:39:53;;;;;;;35.90;16.70;;;;;;;8.94;100.00;99156.39;106797;1286;58202;-82
2023/03/12 07:42:19;;;;;;;33.70;16.50;;;;;;;8.94;100.00;99164.02;106744;1285;58625;-84
2023/03/12 07:44:44;;;;;;;44.60;19.20;;;;;;;8.90;100.00;99175.92;106756;1286;58277;-82
2023/03/12 07:47:10;;;;;;;45.00;19.40;;;;;;;8.77;100.00;99188.72;106742;1285;58294;-82
2023/03/12 07:49:35;;;;;;;53.10;22.30;;;;;;;8.64;100.00;99202.84;106789;1286;58281;-83
2023/03/12 07:52:01;;;;;;;54.60;23.40;;;;;;;8.57;100.00;99218.43;106774;1286;58540;-82
2023/03/12 07:54:29;;;;;;;61.40;23.40;;;;;;;8.58;100.00;99222.55;106776;1286;58571;-83
2023/03/12 07:56:58;;;;;;;59.50;23.50;;;;;;;8.58;100.00;99225.40;106759;1286;73417;-82
2023/03/12 07:59:24;;;;;;;53.10;22.00;;;;;;;8.58;100.00;99229.33;106737;1286;71693;-82
2023/03/12 08:01:50;;;;;;;46.70;21.20;;;;;;;8.52;100.00;99234.95;106282;1286;62100;-83
2023/03/12 08:04:15;;;;;;;41.50;20.60;;;;;;;8.43;100.00;99241.84;106783;1286;58650;-83
2023/03/12 08:06:44;;;;;;;41.40;20.00;;;;;;;8.41;100.00;99249.73;106190;1290;58365;-83
2023/03/12 08:09:10;;;;;;;41.50;20.10;;;;;;;8.31;100.00;99253.86;106307;1289;58620;-84
2023/03/12 08:11:36;;;;;;;44.60;19.30;;;;;;;8.35;100.00;99264.40;106188;1290;58426;-83
2023/03/12 08:14:02;;;;;;;48.50;18.70;;;;;;;8.34;100.00;99272.98;106026;1289;58202;-83
2023/03/12 08:16:28;;;;;;;39.90;18.60;;;;;;;8.30;100.00;99285.46;106239;1290;58681;-84
2023/03/12 08:18:53;;;;;;;31.70;16.10;;;;;;;8.21;100.00;99290.94;106222;1289;58314;-83
2023/03/12 08:21:19;;;;;;;32.80;15.30;;;;;;;8.12;100.00;99295.59;106271;1290;58332;-83
2023/03/12 08:23:44;;;;;;;31.20;15.50;;;;;;;8.12;100.00;99304.30;106288;1289;58278;-82
2023/03/12 08:26:10;;;;;;;26.10;14.10;;;;;;;8.18;100.00;99309.20;106217;1290;58357;-83
2023/03/12 08:28:35;;;;;;;28.90;14.20;;;;;;;8.10;100.00;99312.94;106302;1289;58316;-83
2023/03/12 08:31:01;;;;;;;29.60;16.20;;;;;;;8.09;100.00;99319.54;106211;1290;58331;-83
2023/03/12 08:33:27;;;;;;;31.90;17.10;;;;;;;8.08;100.00;99325.83;106248;1289;58666;-83
2023/03/12 08:35:52;;;;;;;31.50;15.80;;;;;;;8.00;100.00;99334.75;106284;1289;58252;-83
2023/03/12 08:38:18;;;;;;;35.90;16.80;;;;;;;7.91;100.00;99338.77;106515;1285;74536;-83
2023/03/12 08:40:44;;;;;;;37.90;17.10;;;;;;;7.91;100.00;99340.59;106755;1286;58117;-83
2023/03/12 08:43:10;;;;;;;29.10;15.70;;;;;;;7.94;100.00;99348.61;106504;1286;58343;-83
2023/03/12 08:45:35;;;;;;;29.20;15.90;;;;;;;8.04;100.00;99358.84;106496;1286;58591;-83
2023/03/12 08:48:02;;;;;;;26.00;14.90;;;;;;;8.10;100.00;99366.07;106796;1285;58250;-83
2023/03/12 08:50:30;;;;;;;23.00;12.90;;;;;;;8.15;100.00;99373.98;106774;1285;58203;-82
2023/03/12 08:52:55;;;;;;;23.40;12.70;;;;;;;8.16;100.00;99378.65;106747;1286;58557;-83
2023/03/12 08:55:21;;;;;;;28.40;13.10;;;;;;;8.11;100.00;99387.20;106579;1286;58842;-83
2023/03/12 08:57:46;;;;;;;22.30;12.30;;;;;;;8.12;100.00;99393.20;106777;1286;58576;-83
2023/03/12 09:00:14;;;;;;;18.80;10.70;;;;;;;8.19;100.00;99398.51;106757;1285;74403;-83
2023/03/12 09:02:43;;;;;;;17.30;9.30;;;;;;;8.16;100.00;99403.92;106448;1286;74283;-84
2023/03/12 09:05:08;;;;;;;12.80;8.00;;;;;;;8.10;100.00;99406.58;106734;1286;71702;-83
2023/03/12 09:07:34;;;;;;;13.60;7.60;;;;;;;8.07;100.00;99407.34;106763;1286;58609;-83
2023/03/12 09:09:59;;;;;;;10.90;6.60;;;;;;;8.25;100.00;99410.67;106358;1286;58336;-83
2023/03/12 09:12:25;;;;;;;10.00;6.30;;;;;;;8.39;100.00;99414.29;106763;1286;58233;-83
2023/03/12 09:14:51;;;;;;;9.30;5.30;;;;;;;8.38;100.00;99417.13;106766;1286;58324;-85
2023/03/12 09:17:17;;;;;;;6.30;4.30;;;;;;;8.33;100.00;99420.85;106759;1287;61318;-83
2023/03/12 09:19:43;;;;;;;8.10;4.30;;;;;;;8.21;100.00;99425.80;106761;1286;58266;-83
2023/03/12 09:22:09;;;;;;;6.90;4.30;;;;;;;8.16;100.00;99433.62;106556;1286;58398;-85
2023/03/12 09:24:34;;;;;;;7.10;4.10;;;;;;;7.98;100.00;99432.68;106768;1286;58308;-83
2023/03/12 09:27:03;;;;;;;6.20;3.60;;;;;;;7.87;100.00;99438.92;106776;1286;58189;-84
2023/03/12 09:29:29;;;;;;;4.90;3.30;;;;;;;7.79;100.00;99447.63;106484;1286;58336;-84
2023/03/12 09:31:54;;;;;;;6.50;3.90;;;;;;;7.72;100.00;99454.75;106822;1286;58279;-84
2023/03/12 09:34:20;;;;;;;10.10;4.20;;;;;;;7.63;100.00;99466.30;106570;1286;58354;-84
2023/03/12 09:36:45;;;;;;;9.10;5.00;;;;;;;7.57;100.00;99470.58;106823;1286;58350;-84
2023/03/12 09:39:11;;;;;;;14.10;5.40;;;;;;;7.57;100.00;99480.08;106759;1286;61314;-84
2023/03/12 09:41:39;;;;;;;18.20;6.10;;;;;;;7.58;100.00;99489.41;106742;1285;58239;-84
2023/03/12 09:44:17;;;;;;;12.30;4.60;;;;;;;7.56;100.00;99502.31;106727;1286;73521;-84
2023/03/12 09:47:07;;;;;;;12.00;4.30;;;;;;;7.44;100.00;99507.61;106761;1285;74360;-84
2023/03/12 09:49:39;;;;;;;9.40;3.40;;;;;;;7.44;100.00;99519.41;106778;1285;71958;-84
2023/03/12 09:52:34;;;;;;;9.70;3.40;;;;;;;7.40;100.00;99527.65;106454;1287;59865;-84
2023/03/12 09:55:13;;;;;;;5.40;2.30;;;;;;;7.37;100.00;99535.80;106169;1291;61103;-84
2023/03/12 09:57:39;;;;;;;7.10;2.40;;;;;;;7.42;100.00;99544.42;106060;1294;74484;-84
2023/03/12 10:00:11;;;;;;;7.20;3.10;;;;;;;7.36;100.00;99544.31;105939;1293;58585;-83
2023/03/12 10:03:17;;;;;;;5.00;2.90;;;;;;;7.41;100.00;99554.29;106037;1294;73171;-83
2023/03/12 10:05:55;;;;;;;8.30;4.00;;;;;;;7.41;100.00;99564.48;105562;1299;61743;-83
2023/03/12 10:08:35;;;;;;;6.30;3.40;;;;;;;7.36;100.00;99573.48;105530;1300;60537;-83
2023/03/12 10:11:19;;;;;;;6.90;3.40;;;;;;;7.28;100.00;99576.44;105558;1299;74488;-84
2023/03/12 10:13:59;;;;;;;6.70;3.70;;;;;;;7.24;100.00;99583.41;105542;1300;74485;-84
2023/03/12 10:16:27;;;;;;;8.10;4.10;;;;;;;7.16;100.00;99589.11;105561;1299;73468;-83
2023/03/12 10:18:57;;;;;;;9.60;4.80;;;;;;;7.05;100.00;99588.69;105517;1300;61246;-84
2023/03/12 10:21:40;;;;;;;7.90;4.00;;;;;;;6.93;100.00;99587.77;105527;1299;61051;-84
2023/03/12 10:24:12;;;;;;;9.50;4.70;;;;;;;6.91;100.00;99592.05;105578;1299;74698;-84
2023/03/12 10:26:44;;;;;;;11.60;4.70;;;;;;;6.88;100.00;99594.17;105517;1299;73494;-84
2023/03/12 10:29:33;;;;;;;8.60;4.60;;;;;;;6.82;100.00;99592.43;105564;1299;72570;-84
2023/03/12 10:32:06;;;;;;;6.10;3.60;;;;;;;6.86;100.00;99588.38;105615;1293;62125;-84
2023/03/12 10:34:50;;;;;;;7.10;3.90;;;;;;;6.95;100.00;99590.45;105986;1293;60991;-84
2023/03/12 10:37:25;;;;;;;7.50;3.90;;;;;;;6.99;100.00;99599.59;105956;1293;72722;-84
2023/03/12 10:39:52;;;;;;;6.60;3.30;;;;;;;7.05;100.00;99603.58;105953;1293;74136;-84
2023/03/12 10:42:20;;;;;;;5.00;2.70;;;;;;;7.07;100.00;99608.79;106099;1286;73652;-83
2023/03/12 10:44:50;;;;;;;4.40;2.50;;;;;;;7.11;100.00;99612.13;106784;1287;60042;-84
2023/03/12 10:47:36;;;;;;;3.80;2.20;;;;;;;7.12;100.00;99615.94;106778;1286;60211;-83
2023/03/12 10:50:18;;;;;;;3.20;2.50;;;;;;;7.08;100.00;99616.83;106737;1286;73468;-83
2023/03/12 10:52:46;;;;;;;3.40;2.20;;;;;;;7.11;100.00;99624.55;106712;1286;73180;-84
2023/03/12 10:55:25;;;;;;;3.50;2.10;;;;;;;7.16;100.00;99629.09;106460;1286;72389;-83
2023/03/12 10:57:52;;;;;;;3.40;2.40;;;;;;;7.05;100.00;99635.67;106743;1286;61751;-84
2023/03/12 11:00:27;;;;;;;3.30;2.50;;;;;;;7.01;100.00;99635.06;106462;1286;60144;-83
2023/03/12 11:02:59;;;;;;;2.30;1.90;;;;;;;6.88;100.00;99650.73;106767;1286;73900;-83
2023/03/12 11:05:34;;;;;;;5.80;2.80;;;;;;;6.80;100.00;99658.72;106728;1286;73456;-84
2023/03/12 11:08:01;;;;;;;3.40;2.30;;;;;;;6.79;100.00;99661.97;106718;1286;73319;-83
2023/03/12 11:10:41;;;;;;;5.70;2.20;;;;;;;6.68;100.00;99665.86;106709;1286;61822;-83
2023/03/12 11:13:22;;;;;;;5.40;2.20;;;;;;;6.60;100.00;99672.77;106716;1286;61263;-83
2023/03/12 11:15:49;;;;;;;3.80;2.30;;;;;;;6.56;100.00;99683.98;106770;1286;74432;-83